Time;durP1;ratioP1;P1;durP2;ratioP2;P2;SDS_P1;SDS_P2;PMS_P1;PMS_P2;Temp;Humidity;BMP_temperature;BMP_pressure;BME280_temperature;BME280_humidity;BME280_pressure;Samples;Min_cycle;Max_cycle;Signal;HPM_P1;HPM_P2
2022/03/29 00:01:19;;;;;;;22.30;17.47;;;7.60;99.90;;;;;;5113159;27;20039;-75
2022/03/29 00:03:45;;;;;;;21.43;17.83;;;7.60;99.90;;;;;;5105416;28;20059;-75
2022/03/29 00:06:10;;;;;;;24.00;18.17;;;7.60;99.90;;;;;;5110517;27;20498;-76
2022/03/29 00:08:36;;;;;;;24.67;18.43;;;7.60;99.90;;;;;;5110771;27;20118;-75
2022/03/29 00:11:03;;;;;;;24.53;18.70;;;7.60;99.90;;;;;;5105097;27;20441;-75
2022/03/29 00:13:29;;;;;;;26.53;20.33;;;7.60;99.90;;;;;;5114939;28;20043;-75
2022/03/29 00:15:55;;;;;;;30.87;20.03;;;7.60;99.90;;;;;;5100058;28;20042;-76
2022/03/29 00:18:20;;;;;;;25.97;20.10;;;7.60;99.90;;;;;;5084066;28;20055;-76
2022/03/29 00:20:46;;;;;;;24.90;19.47;;;7.60;99.90;;;;;;5100149;27;20502;-77
2022/03/29 00:23:12;;;;;;;33.60;21.07;;;7.60;99.90;;;;;;5112936;28;20513;-75
2022/03/29 00:25:38;;;;;;;25.30;19.10;;;7.60;99.90;;;;;;5104026;27;20119;-75
2022/03/29 00:28:05;;;;;;;26.53;19.27;;;7.60;99.90;;;;;;5098161;28;20044;-75
2022/03/29 00:30:31;;;;;;;27.37;19.40;;;7.70;99.90;;;;;;5090947;27;20108;-76
2022/03/29 00:32:57;;;;;;;26.63;20.40;;;7.70;99.90;;;;;;5113072;27;20465;-75
2022/03/29 00:35:24;;;;;;;29.67;21.43;;;7.70;99.90;;;;;;5115775;27;20039;-76
2022/03/29 00:37:51;;;;;;;30.10;20.97;;;7.60;99.90;;;;;;5107442;27;20130;-75
2022/03/29 00:40:19;;;;;;;27.80;20.30;;;7.60;99.90;;;;;;5104062;27;20123;-76
2022/03/29 00:42:45;;;;;;;27.07;20.73;;;7.60;99.90;;;;;;5101989;28;20044;-75
2022/03/29 00:45:12;;;;;;;28.83;20.80;;;7.60;99.90;;;;;;5108713;27;20156;-75
2022/03/29 00:47:38;;;;;;;26.40;19.90;;;7.60;99.90;;;;;;5098586;28;20052;-76
2022/03/29 00:50:05;;;;;;;25.10;20.23;;;7.60;99.90;;;;;;5104481;27;20039;-75
2022/03/29 00:52:31;;;;;;;27.03;19.50;;;7.60;99.90;;;;;;5100461;27;20038;-75
2022/03/29 00:54:57;;;;;;;27.90;20.03;;;7.60;99.90;;;;;;5123841;27;20034;-75
2022/03/29 00:57:25;;;;;;;29.37;19.70;;;7.60;99.90;;;;;;5094687;28;20032;-75
2022/03/29 00:59:52;;;;;;;26.70;19.77;;;7.60;99.90;;;;;;5102243;27;20460;-75
2022/03/29 01:02:19;;;;;;;27.17;19.20;;;7.60;99.90;;;;;;5089616;27;20058;-75
2022/03/29 01:04:44;;;;;;;27.83;20.40;;;7.60;99.90;;;;;;5114876;27;20054;-75
2022/03/29 01:07:11;;;;;;;24.00;18.53;;;7.60;99.90;;;;;;5100190;27;20051;-75
2022/03/29 01:09:37;;;;;;;26.77;19.97;;;7.60;99.90;;;;;;5111757;27;20190;-77
2022/03/29 01:12:03;;;;;;;30.30;20.33;;;7.60;99.90;;;;;;5113341;27;20490;-75
2022/03/29 01:14:29;;;;;;;27.27;20.33;;;7.70;99.90;;;;;;5115080;27;20081;-75
2022/03/29 01:19:43;;;;;;;25.90;19.47;;;7.60;99.90;;;;;;5107986;27;20262;-76
2022/03/29 01:22:11;;;;;;;34.10;22.17;;;7.60;99.90;;;;;;5085574;27;20043;-75
2022/03/29 01:24:40;;;;;;;28.90;21.83;;;7.60;99.90;;;;;;5114810;27;20374;-75
2022/03/29 01:27:07;;;;;;;28.53;20.90;;;7.60;99.90;;;;;;5109863;27;20088;-75
2022/03/29 01:29:34;;;;;;;29.23;21.37;;;7.60;99.90;;;;;;5112239;27;20093;-75
2022/03/29 01:32:03;;;;;;;31.87;21.07;;;7.60;99.90;;;;;;5125467;27;20039;-75
2022/03/29 01:34:30;;;;;;;30.03;21.57;;;7.50;99.90;;;;;;5101592;27;20039;-75
2022/03/29 01:36:56;;;;;;;31.63;22.17;;;7.50;99.90;;;;;;5111409;27;20035;-75
2022/03/29 01:39:23;;;;;;;36.20;24.50;;;7.50;99.90;;;;;;5099908;27;20071;-75
2022/03/29 01:41:49;;;;;;;32.53;23.23;;;7.50;99.90;;;;;;5115542;27;20081;-76
2022/03/29 01:44:14;;;;;;;35.80;24.27;;;7.50;99.90;;;;;;5102936;28;21362;-75
2022/03/29 01:46:40;;;;;;;32.13;23.63;;;7.40;99.90;;;;;;5109229;27;20266;-75
2022/03/29 01:49:07;;;;;;;33.03;22.87;;;7.30;99.90;;;;;;5105308;27;20121;-75
2022/03/29 01:51:33;;;;;;;32.00;21.77;;;7.30;99.90;;;;;;5105073;27;20047;-75
2022/03/29 01:54:02;;;;;;;36.10;23.50;;;7.30;99.90;;;;;;5097939;28;20051;-75
2022/03/29 01:56:31;;;;;;;34.60;22.67;;;7.30;99.90;;;;;;5092327;28;20036;-74
2022/03/29 01:58:57;;;;;;;36.53;23.07;;;7.40;99.90;;;;;;5108124;27;20064;-76
2022/03/29 02:01:23;;;;;;;35.43;23.30;;;7.40;99.90;;;;;;5110243;28;20047;-75
2022/03/29 02:03:48;;;;;;;30.30;21.20;;;7.40;99.90;;;;;;5096226;27;20092;-75
2022/03/29 02:06:14;;;;;;;32.13;22.57;;;7.40;99.90;;;;;;5104959;27;20447;-75
2022/03/29 02:08:41;;;;;;;34.57;23.07;;;7.40;99.90;;;;;;5113040;27;20066;-75
2022/03/29 02:11:07;;;;;;;31.83;22.37;;;7.40;99.90;;;;;;5107571;27;20031;-75
2022/03/29 02:13:34;;;;;;;32.13;22.87;;;7.30;99.90;;;;;;5103105;28;20067;-75
2022/03/29 02:16:00;;;;;;;30.73;21.77;;;7.30;99.90;;;;;;5099839;27;20047;-75
2022/03/29 02:18:26;;;;;;;32.47;23.33;;;7.30;99.90;;;;;;5106583;28;20039;-75
2022/03/29 02:20:52;;;;;;;32.73;22.40;;;7.30;99.90;;;;;;5092277;27;20051;-75
2022/03/29 02:23:18;;;;;;;34.20;21.80;;;7.30;99.90;;;;;;5104383;27;20125;-76
2022/03/29 02:25:47;;;;;;;32.33;23.10;;;7.40;99.90;;;;;;5107242;28;20072;-76
2022/03/29 02:28:13;;;;;;;34.73;22.63;;;7.40;99.90;;;;;;5098285;28;20035;-75
2022/03/29 02:30:41;;;;;;;32.87;22.40;;;7.40;99.90;;;;;;5110565;27;20111;-75
2022/03/29 02:33:07;;;;;;;32.90;22.50;;;7.40;99.90;;;;;;5103503;28;20134;-75
2022/03/29 02:35:33;;;;;;;31.33;21.97;;;7.40;99.90;;;;;;5108853;28;20047;-75
2022/03/29 02:37:59;;;;;;;39.13;23.27;;;7.40;99.90;;;;;;5097116;28;20476;-75
2022/03/29 02:40:25;;;;;;;33.77;22.50;;;7.40;99.90;;;;;;5100329;28;20085;-75
2022/03/29 02:42:53;;;;;;;33.13;22.57;;;7.50;99.90;;;;;;5104838;28;20394;-76
2022/03/29 02:45:20;;;;;;;30.20;22.50;;;7.60;99.90;;;;;;5108522;28;20043;-76
2022/03/29 02:47:49;;;;;;;30.73;21.73;;;7.50;99.90;;;;;;5104987;28;20044;-75
2022/03/29 02:50:16;;;;;;;31.30;22.07;;;7.50;99.90;;;;;;5105959;27;20107;-75
2022/03/29 02:52:44;;;;;;;33.40;21.93;;;7.50;99.90;;;;;;5114201;27;20045;-75
2022/03/29 02:55:10;;;;;;;31.70;22.40;;;7.50;99.90;;;;;;5098539;28;20120;-75
2022/03/29 02:57:36;;;;;;;34.07;23.00;;;7.50;99.90;;;;;;5106960;27;20047;-75
2022/03/29 03:00:04;;;;;;;31.67;22.30;;;7.50;99.90;;;;;;5108217;27;20072;-75
2022/03/29 03:02:30;;;;;;;37.27;22.60;;;7.50;99.90;;;;;;5097443;27;20035;-75
2022/03/29 03:04:57;;;;;;;35.40;23.13;;;7.50;99.90;;;;;;5113513;27;20043;-75
2022/03/29 03:07:23;;;;;;;32.87;22.90;;;7.50;99.90;;;;;;5098398;27;20450;-76
2022/03/29 03:09:49;;;;;;;34.30;22.77;;;7.50;99.90;;;;;;5108467;27;20039;-75
2022/03/29 03:12:14;;;;;;;33.07;23.23;;;7.50;99.90;;;;;;5087650;27;20122;-74
2022/03/29 03:14:40;;;;;;;33.87;23.53;;;7.50;99.90;;;;;;5105257;27;20402;-75
2022/03/29 03:17:06;;;;;;;30.93;21.03;;;7.50;99.90;;;;;;5105482;27;20042;-75
2022/03/29 03:19:31;;;;;;;33.17;23.10;;;7.50;99.90;;;;;;5110355;27;20058;-76
2022/03/29 03:21:58;;;;;;;33.07;22.53;;;7.50;99.90;;;;;;5108047;27;20043;-75
2022/03/29 03:24:24;;;;;;;32.27;21.93;;;7.50;99.90;;;;;;5103187;27;20134;-75
2022/03/29 03:26:50;;;;;;;37.73;23.87;;;7.50;99.90;;;;;;5108281;27;20142;-75
2022/03/29 03:29:15;;;;;;;36.97;22.57;;;7.50;99.90;;;;;;5110124;28;20139;-75
2022/03/29 03:31:41;;;;;;;31.17;22.00;;;7.50;99.90;;;;;;5096431;27;20125;-75
2022/03/29 03:34:07;;;;;;;34.77;22.63;;;7.60;99.90;;;;;;5107948;27;20122;-75
2022/03/29 03:36:33;;;;;;;32.70;22.40;;;7.50;99.90;;;;;;5114867;27;20045;-75
2022/03/29 03:39:00;;;;;;;32.43;21.33;;;7.50;99.90;;;;;;5103247;27;20074;-75
2022/03/29 03:41:25;;;;;;;34.23;23.43;;;7.50;99.90;;;;;;5107577;27;20523;-74
2022/03/29 03:43:51;;;;;;;33.97;21.87;;;7.50;99.90;;;;;;5096106;27;20044;-75
2022/03/29 03:46:17;;;;;;;36.27;23.27;;;7.50;99.90;;;;;;5107743;27;20126;-75
2022/03/29 03:48:43;;;;;;;33.67;23.33;;;7.50;99.90;;;;;;5109616;27;20078;-75
2022/03/29 03:51:09;;;;;;;36.47;23.47;;;7.40;99.90;;;;;;5096021;27;20073;-75
2022/03/29 03:53:34;;;;;;;33.93;23.07;;;7.40;99.90;;;;;;5106986;27;20413;-75
2022/03/29 03:56:01;;;;;;;34.83;22.83;;;7.40;99.90;;;;;;5116365;27;20051;-75
2022/03/29 03:58:27;;;;;;;33.27;22.80;;;7.40;99.90;;;;;;5106515;27;20122;-75
2022/03/29 04:00:53;;;;;;;35.57;24.27;;;7.40;99.90;;;;;;5115390;27;20126;-75
2022/03/29 04:03:19;;;;;;;35.27;23.80;;;7.30;99.90;;;;;;5106350;28;20055;-76
2022/03/29 04:05:44;;;;;;;38.03;23.90;;;7.30;99.90;;;;;;5110159;27;20043;-75
2022/03/29 04:08:10;;;;;;;36.70;22.77;;;7.30;99.90;;;;;;5112886;27;20092;-75
2022/03/29 04:10:37;;;;;;;33.53;22.10;;;7.40;99.90;;;;;;5108560;27;20493;-75
2022/03/29 04:13:04;;;;;;;33.10;22.57;;;7.40;99.90;;;;;;5112973;27;20497;-76
2022/03/29 04:15:30;;;;;;;39.37;24.47;;;7.40;99.90;;;;;;5112823;27;20047;-75
2022/03/29 04:17:57;;;;;;;37.73;23.93;;;7.40;99.90;;;;;;5108037;27;20047;-75
2022/03/29 04:20:23;;;;;;;36.43;22.50;;;7.40;99.90;;;;;;5108722;27;20039;-75
2022/03/29 04:22:48;;;;;;;33.20;23.73;;;7.50;99.90;;;;;;5113097;27;20100;-75
2022/03/29 04:25:14;;;;;;;32.97;23.30;;;7.40;99.90;;;;;;5110871;27;20046;-75
2022/03/29 04:27:40;;;;;;;32.47;22.03;;;7.40;99.90;;;;;;5110479;27;20084;-75
2022/03/29 04:30:09;;;;;;;34.50;23.20;;;7.50;99.90;;;;;;5126711;27;20039;-75
2022/03/29 04:32:36;;;;;;;37.67;23.40;;;7.50;99.90;;;;;;5113622;27;20252;-75
2022/03/29 04:35:02;;;;;;;35.60;24.50;;;7.50;99.90;;;;;;5110115;27;20039;-75
2022/03/29 04:37:28;;;;;;;36.63;23.23;;;7.50;99.90;;;;;;5111572;28;20043;-76
2022/03/29 04:39:53;;;;;;;35.93;23.57;;;7.50;99.90;;;;;;5103802;27;20042;-75
2022/03/29 04:42:20;;;;;;;35.70;24.87;;;7.50;99.90;;;;;;5097827;28;20052;-75
2022/03/29 04:44:46;;;;;;;31.50;22.90;;;7.50;99.90;;;;;;5109435;27;20039;-75
2022/03/29 04:47:13;;;;;;;35.40;23.60;;;7.50;99.90;;;;;;5097569;27;20451;-76
2022/03/29 04:49:39;;;;;;;36.37;25.10;;;7.50;99.90;;;;;;5109183;27;20497;-75
2022/03/29 04:52:06;;;;;;;34.47;24.07;;;7.50;99.90;;;;;;5112118;27;20104;-75
2022/03/29 04:54:32;;;;;;;38.70;25.80;;;7.50;99.90;;;;;;5110612;28;20043;-75
2022/03/29 04:57:00;;;;;;;36.93;23.80;;;7.50;99.90;;;;;;5111545;27;20470;-75
2022/03/29 04:59:25;;;;;;;35.70;23.87;;;7.50;99.90;;;;;;5108429;27;20046;-75
2022/03/29 05:01:51;;;;;;;34.50;24.10;;;7.50;99.90;;;;;;5110097;27;20043;-75
2022/03/29 05:04:19;;;;;;;32.87;23.40;;;7.50;99.90;;;;;;5103423;27;20039;-75
2022/03/29 05:06:44;;;;;;;35.27;24.10;;;7.50;99.90;;;;;;5106687;27;20047;-75
2022/03/29 05:09:10;;;;;;;34.83;23.60;;;7.50;99.90;;;;;;5111751;28;20049;-75
2022/03/29 05:11:36;;;;;;;35.30;24.50;;;7.50;99.90;;;;;;5099467;27;20054;-75
2022/03/29 05:14:02;;;;;;;36.77;24.10;;;7.50;99.90;;;;;;5103171;27;20069;-75
2022/03/29 05:16:28;;;;;;;37.80;26.00;;;7.50;99.90;;;;;;5106400;27;20047;-75
2022/03/29 05:18:53;;;;;;;34.00;23.60;;;7.50;99.90;;;;;;5101616;27;20481;-75
2022/03/29 05:21:20;;;;;;;33.87;24.37;;;7.50;99.90;;;;;;5100444;27;20104;-76
2022/03/29 05:23:46;;;;;;;36.87;24.43;;;7.50;99.90;;;;;;5106118;27;20131;-75
2022/03/29 05:26:12;;;;;;;38.47;24.90;;;7.50;99.90;;;;;;5107511;28;20463;-75
2022/03/29 05:28:38;;;;;;;34.80;24.03;;;7.50;99.90;;;;;;5104166;27;20049;-75
2022/03/29 05:31:04;;;;;;;35.63;23.57;;;7.50;99.90;;;;;;5085747;27;20092;-75
2022/03/29 05:33:30;;;;;;;41.30;23.80;;;7.50;99.90;;;;;;5099468;27;20104;-75
2022/03/29 05:35:57;;;;;;;34.53;23.40;;;7.50;99.90;;;;;;5099396;27;20047;-75
2022/03/29 05:38:24;;;;;;;37.13;23.17;;;7.50;99.90;;;;;;5101808;28;20038;-75
2022/03/29 05:40:50;;;;;;;40.77;25.37;;;7.50;99.90;;;;;;5099974;27;20043;-75
2022/03/29 05:43:17;;;;;;;36.97;23.83;;;7.50;99.90;;;;;;5104647;27;20054;-74
2022/03/29 05:45:45;;;;;;;39.77;25.07;;;7.50;99.90;;;;;;5112857;27;20046;-73
2022/03/29 05:50:55;;;;;;;40.35;23.73;;;7.50;99.90;;;;;;5101201;27;20054;-74
2022/03/29 05:53:20;;;;;;;41.53;25.40;;;7.60;99.90;;;;;;5106743;27;20043;-74
2022/03/29 05:55:48;;;;;;;40.13;25.13;;;7.60;99.90;;;;;;5112003;27;20113;-74
2022/03/29 05:58:16;;;;;;;37.03;24.63;;;7.60;99.90;;;;;;5106197;27;20043;-74
2022/03/29 06:00:42;;;;;;;35.70;24.13;;;7.60;99.90;;;;;;5094777;28;20455;-74
2022/03/29 06:03:08;;;;;;;37.77;24.20;;;7.60;99.90;;;;;;5104722;27;20127;-74
2022/03/29 06:05:36;;;;;;;38.87;25.80;;;7.60;99.90;;;;;;5088711;27;20042;-73
2022/03/29 06:08:01;;;;;;;42.10;25.57;;;7.60;99.90;;;;;;5099665;27;20051;-72
2022/03/29 06:10:27;;;;;;;37.03;24.00;;;7.70;99.90;;;;;;5105168;27;20556;-73
2022/03/29 06:12:54;;;;;;;45.17;25.90;;;7.70;99.90;;;;;;5104560;27;20047;-73
2022/03/29 06:15:20;;;;;;;37.80;24.20;;;7.70;99.90;;;;;;5096062;27;20122;-73
2022/03/29 06:17:45;;;;;;;41.57;26.43;;;7.80;99.90;;;;;;5099813;27;20118;-72
2022/03/29 06:20:11;;;;;;;45.80;26.30;;;7.80;99.90;;;;;;5100805;27;20048;-72
2022/03/29 06:22:39;;;;;;;42.83;25.53;;;7.80;99.90;;;;;;5101252;27;20043;-73
2022/03/29 06:25:06;;;;;;;43.73;26.60;;;7.80;99.90;;;;;;5090229;27;20034;-73
2022/03/29 06:27:32;;;;;;;42.37;25.37;;;7.90;99.90;;;;;;5095297;28;20048;-73
2022/03/29 06:29:59;;;;;;;40.63;25.23;;;7.90;99.90;;;;;;5100763;27;20059;-73
2022/03/29 06:32:25;;;;;;;41.10;25.70;;;7.90;99.90;;;;;;5089222;27;20092;-73
2022/03/29 06:34:51;;;;;;;42.77;25.60;;;7.90;99.90;;;;;;5106129;28;20520;-73
2022/03/29 06:37:16;;;;;;;46.17;25.80;;;7.90;99.90;;;;;;5097386;28;20069;-73
2022/03/29 06:39:42;;;;;;;41.80;26.10;;;8.00;99.90;;;;;;5100817;28;20102;-73
2022/03/29 06:42:08;;;;;;;43.43;26.23;;;8.00;99.90;;;;;;5099118;28;20104;-73
2022/03/29 06:44:34;;;;;;;41.37;25.17;;;8.10;99.90;;;;;;5123436;28;20045;-73
2022/03/29 06:47:02;;;;;;;44.30;26.47;;;8.10;99.90;;;;;;5102009;28;20130;-73
2022/03/29 06:49:28;;;;;;;44.43;26.33;;;8.20;99.90;;;;;;5091061;28;20051;-73
2022/03/29 06:51:54;;;;;;;41.97;26.27;;;8.20;99.90;;;;;;5105785;28;20115;-72
2022/03/29 06:54:20;;;;;;;45.33;25.33;;;8.30;99.90;;;;;;5108853;28;20409;-72
2022/03/29 06:56:46;;;;;;;44.40;26.80;;;8.40;99.90;;;;;;5097951;28;20050;-72
2022/03/29 06:59:12;;;;;;;40.37;24.93;;;8.40;99.90;;;;;;5101931;28;20050;-72
2022/03/29 07:01:37;;;;;;;44.30;25.30;;;8.50;99.90;;;;;;5108994;28;20043;-73
2022/03/29 07:04:07;;;;;;;46.70;24.50;;;8.50;99.90;;;;;;5107339;28;20046;-73
2022/03/29 07:06:33;;;;;;;45.53;26.13;;;8.60;99.90;;;;;;5100224;28;20052;-73
2022/03/29 07:11:45;;;;;;;44.90;24.93;;;8.70;99.90;;;;;;5103546;28;20481;-73
2022/03/29 07:14:12;;;;;;;42.00;25.17;;;8.70;99.90;;;;;;5108490;28;20058;-73
2022/03/29 07:16:39;;;;;;;39.37;24.30;;;8.70;99.90;;;;;;5100843;28;20039;-73
2022/03/29 07:19:08;;;;;;;39.57;25.80;;;8.80;99.90;;;;;;5098803;28;20035;-73
2022/03/29 07:21:34;;;;;;;48.80;26.33;;;8.90;99.90;;;;;;5105136;28;20050;-73
2022/03/29 07:24:01;;;;;;;44.17;25.20;;;9.00;99.90;;;;;;5103157;28;20051;-73
2022/03/29 07:26:30;;;;;;;49.00;27.53;;;9.00;99.90;;;;;;5099149;28;20073;-73
2022/03/29 07:28:56;;;;;;;43.50;26.10;;;9.10;99.90;;;;;;5106013;28;20043;-75
2022/03/29 07:31:21;;;;;;;40.07;25.07;;;9.20;99.90;;;;;;5100534;28;20058;-73
2022/03/29 07:33:47;;;;;;;49.23;26.87;;;9.20;99.90;;;;;;5110255;27;20075;-73
2022/03/29 07:36:14;;;;;;;44.77;26.90;;;9.30;99.90;;;;;;5109665;27;20070;-73
2022/03/29 07:38:40;;;;;;;51.03;28.93;;;9.40;99.90;;;;;;5114794;27;20512;-73
2022/03/29 07:41:06;;;;;;;50.57;29.67;;;9.40;99.90;;;;;;5105689;27;20040;-75
2022/03/29 07:43:32;;;;;;;47.20;28.80;;;9.40;99.90;;;;;;5115266;27;20055;-74
2022/03/29 07:45:57;;;;;;;47.20;30.97;;;9.40;99.90;;;;;;5101504;27;20104;-74
2022/03/29 07:48:23;;;;;;;51.97;32.13;;;9.40;99.90;;;;;;5109299;27;20055;-72
2022/03/29 07:50:49;;;;;;;54.43;32.67;;;9.40;99.90;;;;;;5110603;27;20070;-73
2022/03/29 07:53:17;;;;;;;57.30;32.43;;;9.40;99.90;;;;;;5109020;27;20476;-72
2022/03/29 07:55:42;;;;;;;51.17;31.60;;;9.40;99.90;;;;;;5105261;28;20497;-74
2022/03/29 07:58:09;;;;;;;52.37;31.47;;;9.40;99.90;;;;;;5098086;27;20117;-74
2022/03/29 08:00:36;;;;;;;56.03;32.20;;;9.40;99.90;;;;;;5106315;27;20046;-73
2022/03/29 08:03:04;;;;;;;46.53;28.10;;;9.50;99.90;;;;;;5111815;27;20051;-74
2022/03/29 08:05:30;;;;;;;49.10;30.30;;;9.50;99.90;;;;;;5087075;28;20453;-74
2022/03/29 08:07:59;;;;;;;55.73;32.13;;;9.50;99.90;;;;;;5106810;27;20408;-73
2022/03/29 08:10:28;;;;;;;48.23;30.53;;;9.60;99.90;;;;;;5101635;27;20051;-73
2022/03/29 08:12:54;;;;;;;52.63;30.97;;;9.70;99.90;;;;;;5106742;27;20512;-74
2022/03/29 08:15:20;;;;;;;50.17;30.13;;;9.70;99.90;;;;;;5103955;27;20047;-73
2022/03/29 08:17:47;;;;;;;51.37;27.97;;;9.80;99.90;;;;;;5109861;27;20412;-73
2022/03/29 08:20:13;;;;;;;46.67;26.60;;;9.90;99.90;;;;;;5103607;27;20040;-72
2022/03/29 08:22:44;;;;;;;44.50;25.33;;;10.00;99.90;;;;;;5102276;27;20134;-72
2022/03/29 08:25:12;;;;;;;40.70;25.33;;;10.10;99.90;;;;;;5097128;27;20070;-73
2022/03/29 08:27:39;;;;;;;38.17;21.97;;;10.20;99.90;;;;;;5109530;27;20121;-75
2022/03/29 08:30:06;;;;;;;42.80;22.53;;;10.30;99.90;;;;;;5109066;27;20039;-73
2022/03/29 08:32:32;;;;;;;41.53;23.43;;;10.30;99.90;;;;;;5105831;27;20046;-74
2022/03/29 08:34:58;;;;;;;40.73;22.53;;;10.30;99.90;;;;;;5108685;27;20039;-73
2022/03/29 08:37:24;;;;;;;39.47;22.43;;;10.40;99.90;;;;;;5090298;27;20534;-74
2022/03/29 08:39:49;;;;;;;42.53;21.23;;;10.50;99.90;;;;;;5103468;27;20116;-73
2022/03/29 08:42:18;;;;;;;36.40;21.73;;;10.50;99.90;;;;;;5101997;27;20058;-72
2022/03/29 08:44:46;;;;;;;40.17;20.73;;;10.50;99.90;;;;;;5105600;27;20043;-73
2022/03/29 08:47:15;;;;;;;39.27;21.20;;;10.50;99.90;;;;;;5124545;27;20519;-74
2022/03/29 08:49:42;;;;;;;40.23;21.60;;;10.50;99.90;;;;;;5104730;27;20275;-72
2022/03/29 08:52:08;;;;;;;42.70;20.43;;;10.60;99.90;;;;;;5104035;27;20078;-73
2022/03/29 08:54:34;;;;;;;42.33;21.47;;;10.70;99.90;;;;;;5105829;27;20077;-73
2022/03/29 08:57:00;;;;;;;33.03;20.70;;;10.70;99.90;;;;;;5101410;27;20040;-74
2022/03/29 08:59:27;;;;;;;36.30;21.50;;;10.70;99.90;;;;;;5101467;27;20135;-73
2022/03/29 09:01:56;;;;;;;41.13;21.87;;;10.80;99.90;;;;;;5107442;27;20076;-74
2022/03/29 09:04:24;;;;;;;36.13;20.90;;;10.90;99.90;;;;;;5104019;27;20553;-74
2022/03/29 09:06:58;;;;;;;38.97;20.63;;;11.10;99.90;;;;;;5094666;28;20051;-73
2022/03/29 09:09:27;;;;;;;43.00;20.57;;;11.20;99.90;;;;;;5092470;27;20051;-73
2022/03/29 09:11:55;;;;;;;32.50;19.23;;;11.20;99.90;;;;;;5105703;27;20035;-74
2022/03/29 09:14:21;;;;;;;31.50;19.53;;;11.30;99.90;;;;;;5102479;27;20035;-74
2022/03/29 09:16:48;;;;;;;35.67;21.10;;;11.30;99.90;;;;;;5109278;27;20039;-75
2022/03/29 09:19:15;;;;;;;36.13;18.80;;;11.60;99.90;;;;;;5103709;27;20417;-73
2022/03/29 09:21:42;;;;;;;33.50;18.37;;;11.80;99.90;;;;;;5091163;27;20050;-75
2022/03/29 09:24:11;;;;;;;37.20;19.40;;;11.90;99.90;;;;;;5120521;27;20412;-75
2022/03/29 09:26:38;;;;;;;35.93;20.13;;;12.10;99.90;;;;;;5106724;27;20039;-75
2022/03/29 09:29:12;;;;;;;40.03;19.30;;;12.30;99.90;;;;;;5096158;27;20081;-74
2022/03/29 09:31:39;;;;;;;40.22;19.25;;;12.50;99.90;;;;;;5107789;27;20051;-74
2022/03/29 09:34:13;;;;;;;31.00;18.67;;;12.70;99.90;;;;;;5104062;27;20179;-74
2022/03/29 09:36:44;;;;;;;;;;;12.90;99.90;;;;;;5103709;27;21634;-74
2022/03/29 09:39:29;;;;;;;38.80;18.77;;;13.20;99.90;;;;;;5105775;27;19923;-74
2022/03/29 09:41:58;;;;;;;35.77;19.17;;;13.60;99.90;;;;;;5103397;27;20044;-74
2022/03/29 09:44:39;;;;;;;33.40;18.30;;;13.80;99.90;;;;;;5087465;27;20476;-74
2022/03/29 09:47:08;;;;;;;30.23;17.70;;;13.80;99.90;;;;;;5104964;27;20047;-75
2022/03/29 09:49:54;;;;;;;31.07;18.53;;;13.90;99.90;;;;;;5116773;27;20051;-75
2022/03/29 09:52:24;;;;;;;31.23;18.93;;;13.90;99.90;;;;;;5102044;27;20149;-76
2022/03/29 09:55:13;;;;;;;43.47;20.83;;;13.80;99.90;;;;;;5100466;27;20043;-73
2022/03/29 09:57:41;;;;;;;39.60;18.30;;;13.80;99.90;;;;;;5109523;27;20031;-74
2022/03/29 10:00:09;;;;;;;32.70;19.13;;;13.80;99.90;;;;;;5104145;27;20043;-73
2022/03/29 10:02:41;;;;;;;39.53;20.97;;;13.80;99.90;;;;;;5104224;27;20084;-74
2022/03/29 10:05:10;;;;;;;37.13;19.33;;;13.80;99.90;;;;;;5105785;27;20129;-74
2022/03/29 10:07:44;;;;;;;32.83;20.00;;;13.70;99.90;;;;;;5100091;27;20464;-74
2022/03/29 10:10:11;;;;;;;31.67;19.47;;;13.80;99.90;;;;;;5100645;27;20051;-75
2022/03/29 10:12:38;;;;;;;37.37;19.43;;;14.00;99.90;;;;;;5106269;27;20200;-75
2022/03/29 10:15:05;;;;;;;29.93;19.87;;;14.00;99.90;;;;;;5103513;27;20043;-75
2022/03/29 10:17:32;;;;;;;40.23;20.43;;;13.90;99.90;;;;;;5099243;28;20066;-74
2022/03/29 10:19:59;;;;;;;34.23;20.07;;;13.70;99.90;;;;;;5092165;27;20119;-75
2022/03/29 10:22:25;;;;;;;28.03;18.90;;;13.50;99.90;;;;;;5104312;27;20051;-75
2022/03/29 10:24:53;;;;;;;33.30;19.20;;;13.40;99.90;;;;;;5107299;27;20100;-74
2022/03/29 10:27:20;;;;;;;32.63;18.10;;;13.40;99.90;;;;;;5103017;28;20044;-75
2022/03/29 10:29:46;;;;;;;34.37;19.40;;;13.40;99.90;;;;;;5104413;28;20509;-76
2022/03/29 10:32:27;;;;;;;36.80;20.60;;;13.30;99.90;;;;;;5102334;27;20074;-75
2022/03/29 10:35:02;;;;;;;40.33;20.93;;;13.40;99.90;;;;;;5106770;27;20050;-74
2022/03/29 10:37:28;;;;;;;35.57;20.00;;;13.40;99.90;;;;;;5100744;28;20039;-74
2022/03/29 10:40:02;;;;;;;36.37;20.67;;;13.70;99.90;;;;;;5080707;28;20081;-74
2022/03/29 10:42:46;;;;;;;31.83;19.70;;;14.00;99.90;;;;;;5102261;27;20374;-75
2022/03/29 10:45:17;;;;;;;35.50;21.15;;;14.40;99.90;;;;;;5103905;28;20403;-71
2022/03/29 10:47:45;;;;;;;35.30;20.67;;;14.50;99.90;;;;;;5086768;28;20188;-77
2022/03/29 10:50:12;;;;;;;32.93;20.60;;;14.60;99.90;;;;;;5107528;28;20038;-75
2022/03/29 10:52:40;;;;;;;35.40;20.33;;;14.90;99.90;;;;;;5089585;27;20050;-74
2022/03/29 10:55:19;;;;;;;39.60;19.43;;;14.90;97.90;;;;;;5108024;28;20050;-75
2022/03/29 10:58:10;;;;;;;33.67;20.00;;;15.20;96.80;;;;;;5099857;28;20043;-75
2022/03/29 11:00:38;;;;;;;33.47;18.07;;;15.20;95.90;;;;;;5095704;27;20043;-73
2022/03/29 11:03:15;;;;;;;36.10;19.50;;;15.90;97.30;;;;;;5093827;28;20500;-74
2022/03/29 11:06:10;;;;;;;31.27;19.50;;;16.70;96.60;;;;;;5085765;28;20040;-74
2022/03/29 11:08:41;;;;;;;35.10;19.33;;;17.00;93.90;;;;;;5124193;27;20043;-73
2022/03/29 11:11:39;;;;;;;33.77;19.37;;;17.70;93.70;;;;;;5105044;27;20118;-74
2022/03/29 11:14:38;;;;;;;31.87;18.77;;;18.00;93.60;;;;;;5108749;27;20462;-75
2022/03/29 11:17:36;;;;;;;27.53;18.63;;;18.40;92.80;;;;;;5109005;27;20047;-75
2022/03/29 11:20:30;;;;;;;31.90;18.07;;;18.40;92.80;;;;;;5103998;27;20137;-75
2022/03/29 11:22:59;;;;;;;30.15;19.08;;;18.00;92.20;;;;;;5102508;27;20038;-75
2022/03/29 11:25:24;;;;;;;31.77;18.67;;;17.70;91.60;;;;;;5082116;27;20043;-74
2022/03/29 11:27:52;;;;;;;30.97;19.43;;;17.20;89.80;;;;;;5104006;27;20049;-75
2022/03/29 11:30:18;;;;;;;29.57;18.57;;;17.60;91.00;;;;;;5106568;27;20419;-76
2022/03/29 11:32:46;;;;;;;26.70;17.90;;;18.40;90.90;;;;;;5103316;27;20625;-74
2022/03/29 11:35:14;;;;;;;26.73;17.07;;;19.20;87.10;;;;;;5082403;27;20080;-75
2022/03/29 11:37:43;;;;;;;32.77;18.73;;;19.50;89.00;;;;;;5101021;27;20054;-75
2022/03/29 11:40:12;;;;;;;27.43;16.87;;;19.60;80.60;;;;;;5100899;27;20048;-75
2022/03/29 11:42:43;;;;;;;31.20;17.33;;;19.20;80.90;;;;;;5105828;27;20035;-75
2022/03/29 11:45:10;;;;;;;29.33;17.53;;;18.70;85.50;;;;;;5105843;27;20039;-75
2022/03/29 11:47:37;;;;;;;29.43;16.70;;;18.90;88.20;;;;;;5083203;27;20047;-73
2022/03/29 11:50:03;;;;;;;25.27;16.63;;;19.00;85.70;;;;;;5103633;27;20499;-74
2022/03/29 11:52:32;;;;;;;30.67;17.80;;;19.40;84.80;;;;;;5102425;27;20497;-74
2022/03/29 11:54:58;;;;;;;29.10;16.43;;;19.50;85.30;;;;;;5106825;27;20036;-74
2022/03/29 11:57:26;;;;;;;35.27;17.73;;;19.40;82.50;;;;;;5105573;27;20105;-72
2022/03/29 11:59:52;;;;;;;32.70;17.97;;;19.00;82.70;;;;;;5102674;27;20054;-75
2022/03/29 12:02:22;;;;;;;26.93;17.73;;;18.50;84.60;;;;;;5105026;27;20143;-75
2022/03/29 12:04:48;;;;;;;27.47;16.83;;;18.10;84.90;;;;;;5105372;27;20471;-74
2022/03/29 12:07:15;;;;;;;29.43;16.63;;;17.70;86.10;;;;;;5098249;27;20051;-75
2022/03/29 12:09:46;;;;;;;25.80;15.70;;;17.50;87.90;;;;;;5103658;27;20104;-75
2022/03/29 12:12:12;;;;;;;31.00;16.63;;;17.70;90.10;;;;;;5100978;27;20047;-75
2022/03/29 12:14:38;;;;;;;26.37;17.13;;;18.10;84.50;;;;;;5104053;27;20493;-75
2022/03/29 12:17:06;;;;;;;27.57;16.70;;;17.70;81.50;;;;;;5103817;27;20035;-75
2022/03/29 12:19:35;;;;;;;30.70;17.70;;;17.10;83.70;;;;;;5102909;27;20146;-74
2022/03/29 12:22:03;;;;;;;24.90;16.27;;;16.80;86.70;;;;;;5103607;27;20531;-74
2022/03/29 12:24:32;;;;;;;24.33;15.30;;;16.60;88.40;;;;;;5105734;27;20450;-75
2022/03/29 12:27:04;;;;;;;29.53;16.80;;;16.50;84.70;;;;;;5101453;27;20054;-74
2022/03/29 12:29:32;;;;;;;30.77;16.67;;;16.50;86.30;;;;;;5104019;27;20051;-76
2022/03/29 12:32:01;;;;;;;32.87;15.80;;;17.10;84.30;;;;;;5123758;27;20429;-75
2022/03/29 12:34:29;;;;;;;27.03;16.17;;;17.20;84.40;;;;;;5104794;27;20055;-77
2022/03/29 12:36:57;;;;;;;28.47;15.57;;;17.10;86.00;;;;;;5104826;27;20055;-75
2022/03/29 12:39:30;;;;;;;29.60;15.00;;;16.90;85.00;;;;;;5106016;27;20935;-75
2022/03/29 12:41:56;;;;;;;26.60;14.07;;;16.40;86.30;;;;;;5099498;27;20497;-74
2022/03/29 12:44:31;;;;;;;29.30;15.00;;;16.20;88.30;;;;;;5099919;27;20047;-75